Time;durP1;ratioP1;P1;durP2;ratioP2;P2;SDS_P1;SDS_P2;PMS_P1;PMS_P2;Temp;Humidity;BMP_temperature;BMP_pressure;BME280_temperature;BME280_humidity;BME280_pressure;Samples;Min_cycle;Max_cycle;Signal;HPM_P1;HPM_P2
2022/12/06 00:02:25;;;;;;;37.10;25.60;;;;;;;3.61;100.00;96699.84;105482;1286;25459;-90
2022/12/06 00:04:55;;;;;;;33.40;23.00;;;;;;;3.56;100.00;96698.24;105504;1288;22510;-89
2022/12/06 00:07:25;;;;;;;36.30;24.70;;;;;;;3.46;100.00;96700.17;104556;1298;1194537;-88
2022/12/06 00:09:54;;;;;;;33.80;22.90;;;;;;;3.37;100.00;96698.71;105471;1303;22560;-89
2022/12/06 00:12:26;;;;;;;28.40;21.00;;;;;;;3.34;100.00;96698.65;105511;1300;22468;-88
2022/12/06 00:14:55;;;;;;;32.50;21.80;;;;;;;3.34;100.00;96696.14;105503;1304;22511;-88
2022/12/06 00:17:26;;;;;;;30.80;21.80;;;;;;;3.37;100.00;96697.63;105414;1309;33289;-89
2022/12/06 00:19:55;;;;;;;37.60;26.70;;;;;;;3.40;100.00;96697.80;105471;1302;22563;-89
2022/12/06 00:22:26;;;;;;;40.50;28.30;;;;;;;3.38;100.00;96698.95;105494;1300;22467;-89
2022/12/06 00:24:56;;;;;;;39.40;28.40;;;;;;;3.37;100.00;96694.36;105514;1304;22502;-88
2022/12/06 00:27:27;;;;;;;37.40;26.10;;;;;;;3.37;100.00;96689.27;105415;1304;22507;-88
2022/12/06 00:29:55;;;;;;;30.00;22.10;;;;;;;3.41;100.00;96686.09;105515;1277;22477;-89
2022/12/06 00:32:24;;;;;;;30.30;22.10;;;;;;;3.42;100.00;96679.70;105483;1304;23279;-89
2022/12/06 00:34:53;;;;;;;30.10;21.50;;;;;;;3.41;100.00;96674.34;105471;1302;22467;-88
2022/12/06 00:37:22;;;;;;;28.50;20.20;;;;;;;3.41;100.00;96675.55;105245;1302;151961;-89
2022/12/06 00:39:51;;;;;;;28.10;20.40;;;;;;;3.43;100.00;96679.51;105492;1304;22458;-88
2022/12/06 00:42:20;;;;;;;31.60;22.50;;;;;;;3.44;100.00;96677.59;105486;1303;23175;-89
2022/12/06 00:44:48;;;;;;;28.70;20.50;;;;;;;3.42;100.00;96665.70;105506;1299;25369;-88
2022/12/06 00:47:17;;;;;;;31.70;23.30;;;;;;;3.34;100.00;96668.02;105349;1302;98311;-89
2022/12/06 00:49:48;;;;;;;41.70;28.10;;;;;;;3.29;100.00;96665.73;105479;1290;22586;-88
2022/12/06 00:52:17;;;;;;;40.90;29.20;;;;;;;3.28;100.00;96663.42;105474;1304;22509;-89
2022/12/06 00:54:46;;;;;;;40.30;28.30;;;;;;;3.30;100.00;96667.75;105534;1296;22460;-88
2022/12/06 00:57:15;;;;;;;39.50;29.10;;;;;;;3.31;100.00;96665.63;105426;1303;28020;-88
2022/12/06 00:59:45;;;;;;;38.40;28.00;;;;;;;3.32;100.00;96664.66;105487;1303;22457;-88
2022/12/06 01:02:18;;;;;;;35.20;25.10;;;;;;;3.33;100.00;96667.35;105491;1303;22692;-89
2022/12/06 01:04:47;;;;;;;31.10;22.70;;;;;;;3.33;100.00;96671.17;105492;1293;25013;-88
2022/12/06 01:07:18;;;;;;;33.70;23.80;;;;;;;3.25;100.00;96678.55;105435;1281;23720;-88
2022/12/06 01:09:47;;;;;;;35.80;25.50;;;;;;;3.13;100.00;96675.67;105514;1297;22537;-89
2022/12/06 01:12:15;;;;;;;36.30;26.10;;;;;;;3.04;100.00;96674.16;105502;1302;22545;-88
2022/12/06 01:14:44;;;;;;;36.30;27.50;;;;;;;3.00;100.00;96676.59;105476;1300;24603;-88
2022/12/06 01:17:13;;;;;;;35.40;26.00;;;;;;;2.99;100.00;96674.38;105343;1303;72469;-89
2022/12/06 01:19:42;;;;;;;33.30;25.30;;;;;;;3.00;100.00;96670.67;105491;1303;22520;-88
2022/12/06 01:22:11;;;;;;;32.90;25.20;;;;;;;3.00;100.00;96671.88;105484;1303;22502;-88
2022/12/06 01:24:40;;;;;;;31.00;24.00;;;;;;;2.99;100.00;96671.40;105406;1289;22490;-87
2022/12/06 01:27:08;;;;;;;32.20;23.20;;;;;;;3.02;100.00;96668.98;105345;1303;83914;-89
2022/12/06 01:29:37;;;;;;;32.90;24.00;;;;;;;3.04;100.00;96670.02;105470;1302;23062;-88
2022/12/06 01:32:06;;;;;;;33.40;24.40;;;;;;;3.05;100.00;96671.30;105513;1282;22499;-88
2022/12/06 01:34:35;;;;;;;33.70;24.20;;;;;;;3.01;100.00;96666.81;105476;1303;25274;-88
2022/12/06 01:37:06;;;;;;;33.10;24.10;;;;;;;2.98;100.00;96659.65;105424;1302;26327;-89
2022/12/06 01:39:35;;;;;;;33.30;24.80;;;;;;;3.00;100.00;96655.64;105482;1287;22464;-88
2022/12/06 01:42:06;;;;;;;31.40;24.40;;;;;;;3.01;100.00;96646.44;105501;1300;22490;-88
2022/12/06 01:44:45;;;;;;;33.80;25.20;;;;;;;3.02;100.00;96645.16;105474;1302;23224;-88
2022/12/06 01:47:20;;;;;;;36.30;26.20;;;;;;;3.03;100.00;96639.58;105438;1292;49074;-88
2022/12/06 01:49:53;;;;;;;38.10;26.70;;;;;;;3.03;100.00;96638.53;105493;1302;24286;-89
2022/12/06 01:52:28;;;;;;;35.10;25.50;;;;;;;3.02;100.00;96630.54;105502;1299;22591;-88
2022/12/06 01:55:01;;;;;;;35.50;26.90;;;;;;;3.03;100.00;96630.55;105517;1293;22477;-88
2022/12/06 01:57:30;;;;;;;35.20;27.10;;;;;;;3.03;100.00;96625.59;105459;1293;22510;-88
2022/12/06 01:59:59;;;;;;;37.00;26.90;;;;;;;3.05;100.00;96617.91;105493;1302;25207;-88
2022/12/06 02:02:28;;;;;;;37.60;28.40;;;;;;;3.06;100.00;96617.41;105474;1302;23559;-89
2022/12/06 02:04:58;;;;;;;39.30;27.70;;;;;;;3.06;100.00;96610.35;105498;1293;23132;-88
2022/12/06 02:07:28;;;;;;;36.80;28.30;;;;;;;3.01;100.00;96601.83;105367;1302;27220;-88
2022/12/06 02:09:57;;;;;;;37.70;28.70;;;;;;;2.92;100.00;96598.75;105474;1302;22478;-88
2022/12/06 02:12:26;;;;;;;41.50;31.40;;;;;;;2.91;100.00;96595.48;105463;1303;25362;-88
2022/12/06 02:14:55;;;;;;;50.50;36.20;;;;;;;2.89;100.00;96593.87;105456;1277;25271;-88
2022/12/06 02:17:36;;;;;;;48.70;33.90;;;;;;;2.86;100.00;96593.13;105430;1302;22458;-88
2022/12/06 02:20:18;;;;;;;;;;;;;;;2.84;100.00;96592.27;105505;1287;26836;-88
2022/12/06 02:23:26;;;;;;;45.70;32.50;;;;;;;2.86;100.00;96587.38;105503;1288;22513;-88
2022/12/06 02:26:16;;;;;;;49.60;35.30;;;;;;;2.87;100.00;96572.00;104140;1287;1813960;-89
2022/12/06 02:29:21;;;;;;;48.10;35.20;;;;;;;2.87;100.00;96566.72;105779;1298;22601;-89
2022/12/06 02:31:56;;;;;;;47.90;35.90;;;;;;;2.88;100.00;96561.75;105779;1300;22513;-89
2022/12/06 02:34:33;;;;;;;47.40;35.30;;;;;;;2.89;100.00;96564.34;105759;1301;22492;-88
2022/12/06 02:37:11;;;;;;;51.30;36.10;;;;;;;2.88;100.00;96560.13;104148;1300;2065737;-87
2022/12/06 02:39:47;;;;;;;51.20;35.70;;;;;;;2.90;100.00;96555.66;105726;1301;24379;-88
2022/12/06 02:42:21;;;;;;;51.40;38.20;;;;;;;2.91;100.00;96546.36;105682;1302;22917;-88
2022/12/06 02:44:55;;;;;;;49.80;36.80;;;;;;;2.92;100.00;96545.13;105746;1291;22450;-89
2022/12/06 02:47:30;;;;;;;50.90;37.70;;;;;;;2.91;100.00;96550.71;105683;1301;58242;-88
2022/12/06 02:50:01;;;;;;;45.60;34.40;;;;;;;2.91;100.00;96552.91;105685;1304;22513;-89
2022/12/06 02:52:31;;;;;;;48.60;34.50;;;;;;;2.87;100.00;96557.65;105740;1301;22497;-88
2022/12/06 02:55:00;;;;;;;;;;;;;;;2.84;100.00;96556.23;105814;1300;22422;-88
2022/12/06 02:57:43;;;;;;;53.00;36.90;;;;;;;2.87;100.00;96555.65;105723;1301;52733;-88
2022/12/06 03:00:36;;;;;;;52.30;37.30;;;;;;;2.87;100.00;96558.97;105814;1292;22438;-89
2022/12/06 03:03:30;;;;;;;53.80;38.00;;;;;;;2.88;100.00;96554.73;105787;1279;22470;-89
2022/12/06 03:06:33;;;;;;;51.10;36.80;;;;;;;2.89;100.00;96549.52;105730;1301;24743;-89
2022/12/06 03:09:12;;;;;;;51.30;35.50;;;;;;;2.91;100.00;96538.60;105740;1301;22541;-88
2022/12/06 03:11:54;;;;;;;57.60;39.00;;;;;;;2.91;100.00;96542.29;105782;1301;22937;-88
2022/12/06 03:14:32;;;;;;;53.40;36.80;;;;;;;2.93;100.00;96543.77;105798;1301;24230;-88
2022/12/06 03:17:09;;;;;;;61.20;38.60;;;;;;;2.93;100.00;96538.44;105590;1301;80596;-88
2022/12/06 03:19:40;;;;;;;57.70;39.10;;;;;;;2.92;100.00;96536.27;105721;1301;22479;-89
2022/12/06 03:22:11;;;;;;;59.50;39.70;;;;;;;2.90;100.00;96531.16;105736;1285;25447;-89
2022/12/06 03:24:45;;;;;;;56.90;38.20;;;;;;;2.88;100.00;96522.95;105785;1301;24322;-88
2022/12/06 03:27:18;;;;;;;58.30;40.10;;;;;;;2.85;100.00;96520.71;105706;1285;26505;-89
2022/12/06 03:29:51;;;;;;;62.10;39.10;;;;;;;2.86;100.00;96520.02;106041;1293;22479;-89
2022/12/06 03:32:24;;;;;;;54.30;37.40;;;;;;;2.86;100.00;96512.45;105817;1293;22481;-88
2022/12/06 03:34:56;;;;;;;61.60;38.50;;;;;;;2.83;100.00;96510.92;105749;1279;22481;-88
2022/12/06 03:37:30;;;;;;;63.70;37.60;;;;;;;2.76;100.00;96508.89;105700;1293;82694;-89
2022/12/06 03:40:06;;;;;;;55.50;37.30;;;;;;;2.66;100.00;96504.33;105795;1301;25423;-88
2022/12/06 03:42:37;;;;;;;52.10;35.40;;;;;;;2.58;100.00;96502.09;105780;1291;22511;-88
2022/12/06 03:45:11;;;;;;;54.70;35.60;;;;;;;2.51;100.00;96500.51;105814;1295;22508;-88
2022/12/06 03:47:55;;;;;;;66.30;38.70;;;;;;;2.42;100.00;96497.50;105746;1292;22625;-88
2022/12/06 03:50:29;;;;;;;56.40;36.40;;;;;;;2.36;100.00;96492.23;105752;1296;25369;-88
2022/12/06 03:52:58;;;;;;;56.30;37.20;;;;;;;2.33;100.00;96491.64;105704;1304;25207;-88
2022/12/06 03:55:27;;;;;;;58.40;37.60;;;;;;;2.32;100.00;96486.46;105734;1301;22508;-88
2022/12/06 03:57:55;;;;;;;58.90;39.40;;;;;;;2.31;100.00;96479.89;105763;1301;24114;-88
2022/12/06 04:00:24;;;;;;;119.10;39.70;;;;;;;2.31;100.00;96476.86;105796;1296;22474;-89
2022/12/06 04:02:53;;;;;;;140.60;42.50;;;;;;;2.27;100.00;96476.42;105768;1282;25437;-89
2022/12/06 04:05:22;;;;;;;;;;;;;;;2.26;100.00;96475.52;105745;1301;22448;-89
2022/12/06 04:07:51;;;;;;;87.60;37.70;;;;;;;2.27;100.00;96474.02;105690;1301;56308;-89
2022/12/06 04:10:21;;;;;;;64.70;40.20;;;;;;;2.28;100.00;96460.32;105753;1289;25320;-89
2022/12/06 04:13:04;;;;;;;72.70;41.60;;;;;;;2.30;100.00;96456.53;105730;1302;22519;-89
2022/12/06 04:15:38;;;;;;;73.70;38.10;;;;;;;2.33;100.00;96449.06;105724;1292;22469;-89
2022/12/06 04:18:13;;;;;;;74.70;38.60;;;;;;;2.33;100.00;96442.47;105745;1301;25266;-89
2022/12/06 04:23:41;;;;;;;66.10;36.40;;;;;;;2.26;100.00;96447.55;105683;1301;22456;-89
2022/12/06 04:26:14;;;;;;;60.40;36.90;;;;;;;2.19;100.00;96443.64;105730;1280;65868;-89
2022/12/06 04:40:13;;;;;;;57.30;34.30;;;;;;;2.01;100.00;96429.70;105762;1278;26161;-89
2022/12/06 04:45:29;;;;;;;62.50;39.40;;;;;;;2.03;100.00;96421.06;105765;1296;22488;-89
2022/12/06 04:47:58;;;;;;;71.90;38.10;;;;;;;2.04;100.00;96420.51;105528;1292;41741;-89
2022/12/06 04:50:29;;;;;;;52.00;37.50;;;;;;;2.08;100.00;96419.91;105524;1296;22597;-89
2022/12/06 04:53:01;;;;;;;74.80;37.00;;;;;;;2.12;100.00;96416.92;105553;1281;22499;-89
2022/12/06 04:55:29;;;;;;;83.50;39.20;;;;;;;2.12;100.00;96413.69;105626;1302;22466;-88
2022/12/06 04:57:59;;;;;;;65.80;39.10;;;;;;;2.08;100.00;96414.84;105523;1295;22484;-89
2022/12/06 05:00:28;;;;;;;54.00;35.70;;;;;;;2.06;100.00;96408.31;105579;1301;22612;-89
2022/12/06 05:02:56;;;;;;;55.80;38.10;;;;;;;2.00;100.00;96409.77;105581;1303;22508;-88
2022/12/06 05:05:25;;;;;;;50.40;33.70;;;;;;;1.99;100.00;96410.59;105581;1294;24295;-90
2022/12/06 05:07:55;;;;;;;43.80;32.70;;;;;;;1.99;100.00;96405.77;105466;1297;25419;-89
2022/12/06 05:10:24;;;;;;;45.90;33.50;;;;;;;1.99;100.00;96396.89;105565;1281;22462;-89
2022/12/06 05:12:55;;;;;;;54.70;39.90;;;;;;;2.01;100.00;96398.33;105607;1288;22903;-88
2022/12/06 05:15:27;;;;;;;59.70;42.80;;;;;;;2.02;100.00;96395.80;105558;1295;22464;-89
2022/12/06 05:17:58;;;;;;;53.70;40.20;;;;;;;2.03;100.00;96397.02;105471;1302;91459;-88
2022/12/06 05:20:27;;;;;;;54.70;40.10;;;;;;;2.05;100.00;96399.00;105565;1287;23794;-89
2022/12/06 05:22:58;;;;;;;49.60;38.70;;;;;;;2.08;100.00;96400.52;105501;1302;22473;-89
2022/12/06 05:25:28;;;;;;;50.30;38.50;;;;;;;2.11;100.00;96400.63;105614;1288;22633;-89
2022/12/06 05:27:57;;;;;;;55.70;39.00;;;;;;;2.12;100.00;96397.80;105500;1302;57755;-89
2022/12/06 05:30:25;;;;;;;52.30;37.00;;;;;;;2.16;100.00;96399.45;105606;1296;22518;-89
2022/12/06 05:32:54;;;;;;;52.50;37.80;;;;;;;2.17;100.00;96403.13;105543;1287;22503;-88
2022/12/06 05:35:25;;;;;;;51.20;37.00;;;;;;;2.17;100.00;96401.29;105545;1303;22670;-89
2022/12/06 05:37:54;;;;;;;54.10;38.70;;;;;;;2.19;100.00;96399.88;105469;1302;22459;-88
2022/12/06 05:40:29;;;;;;;49.50;36.40;;;;;;;2.21;100.00;96400.27;105574;1288;22462;-89
2022/12/06 05:42:59;;;;;;;47.20;32.40;;;;;;;2.22;100.00;96396.78;105546;1302;22508;-88
2022/12/06 05:45:30;;;;;;;41.20;30.90;;;;;;;2.21;100.00;96397.66;105519;1302;22609;-89
2022/12/06 05:48:00;;;;;;;41.90;31.00;;;;;;;2.22;100.00;96395.52;105511;1303;38156;-88
2022/12/06 05:50:29;;;;;;;38.90;30.50;;;;;;;2.25;100.00;96401.45;105563;1301;22617;-89
2022/12/06 05:53:00;;;;;;;40.80;30.30;;;;;;;2.27;100.00;96402.50;105535;1302;22487;-88
2022/12/06 05:55:29;;;;;;;38.10;28.10;;;;;;;2.31;100.00;96396.23;105559;1302;24276;-88
2022/12/06 05:57:57;;;;;;;37.40;27.00;;;;;;;2.33;100.00;96393.20;105499;1290;22566;-88
2022/12/06 06:00:26;;;;;;;37.80;28.40;;;;;;;2.36;100.00;96394.77;105579;1291;22474;-88
2022/12/06 06:02:55;;;;;;;31.70;23.50;;;;;;;2.38;100.00;96393.34;105526;1286;22458;-88
2022/12/06 06:05:29;;;;;;;33.90;25.70;;;;;;;2.42;100.00;96393.58;105605;1281;22471;-88
2022/12/06 06:07:57;;;;;;;32.00;23.40;;;;;;;2.45;100.00;96393.38;105512;1303;24335;-88
2022/12/06 06:10:27;;;;;;;31.30;23.60;;;;;;;2.47;100.00;96392.63;105560;1298;22517;-88
2022/12/06 06:12:56;;;;;;;33.10;24.50;;;;;;;2.50;100.00;96388.49;105557;1288;22465;-88
2022/12/06 06:15:26;;;;;;;32.30;25.00;;;;;;;2.49;100.00;96384.08;105577;1300;22464;-88
2022/12/06 06:17:55;;;;;;;32.60;22.20;;;;;;;2.49;100.00;96383.81;105514;1302;22493;-88
2022/12/06 06:20:27;;;;;;;34.30;25.40;;;;;;;2.51;100.00;96379.73;105498;1294;22508;-88
2022/12/06 06:22:58;;;;;;;29.90;23.00;;;;;;;2.54;100.00;96380.73;105456;1295;22464;-87
2022/12/06 06:25:29;;;;;;;33.00;25.20;;;;;;;2.55;100.00;96380.30;105614;1302;22482;-88
2022/12/06 06:27:57;;;;;;;29.30;21.90;;;;;;;2.61;100.00;96381.39;105560;1302;23639;-88
2022/12/06 06:30:26;;;;;;;26.70;20.10;;;;;;;2.69;100.00;96381.06;105499;1302;22485;-88
2022/12/06 06:32:56;;;;;;;29.70;23.80;;;;;;;2.75;100.00;96381.23;105646;1295;22487;-88
2022/12/06 06:35:26;;;;;;;36.40;30.60;;;;;;;2.80;100.00;96382.98;105597;1301;22457;-88
2022/12/06 06:37:54;;;;;;;28.30;22.90;;;;;;;2.82;100.00;96376.55;105569;1300;25925;-87
2022/12/06 06:40:26;;;;;;;27.60;20.90;;;;;;;2.86;100.00;96375.63;105638;1285;22479;-88
2022/12/06 06:42:54;;;;;;;28.40;23.40;;;;;;;2.89;100.00;96378.61;105641;1302;24257;-87
2022/12/06 06:45:29;;;;;;;26.20;21.40;;;;;;;2.90;100.00;96377.95;105496;1302;22477;-88
2022/12/06 06:47:58;;;;;;;27.50;20.10;;;;;;;2.89;100.00;96378.56;105505;1294;34683;-88
2022/12/06 06:50:29;;;;;;;27.00;20.80;;;;;;;2.89;100.00;96383.06;105628;1300;22660;-88
2022/12/06 06:53:03;;;;;;;26.90;20.60;;;;;;;2.89;100.00;96381.66;105538;1278;22546;-87
2022/12/06 06:55:34;;;;;;;25.90;20.60;;;;;;;2.89;100.00;96384.37;105621;1303;22461;-87
2022/12/06 06:58:04;;;;;;;23.10;18.50;;;;;;;2.89;100.00;96380.30;105745;1300;23282;-88
2022/12/06 07:00:34;;;;;;;23.40;16.60;;;;;;;2.90;100.00;96379.36;105806;1301;24340;-88
2022/12/06 07:03:04;;;;;;;24.10;18.10;;;;;;;2.92;100.00;96371.81;105755;1291;22516;-88
2022/12/06 07:05:32;;;;;;;;;;;;;;;2.94;100.00;96368.73;105738;1303;23767;-88
2022/12/06 07:08:03;;;;;;;25.90;18.90;;;;;;;2.94;100.00;96362.04;105536;1282;23379;-88
2022/12/06 07:10:32;;;;;;;15.60;11.20;;;;;;;2.96;100.00;96353.24;105621;1303;22500;-88
2022/12/06 07:13:02;;;;;;;15.20;11.20;;;;;;;3.08;100.00;96344.64;105605;1301;22492;-87
2022/12/06 07:15:34;;;;;;;25.40;18.70;;;;;;;3.20;100.00;96343.30;105612;1303;22488;-88
2022/12/06 07:18:03;;;;;;;41.00;25.20;;;;;;;3.11;100.00;96339.39;105537;1302;26622;-88
2022/12/06 07:20:32;;;;;;;39.90;28.70;;;;;;;2.95;100.00;96341.69;105520;1297;23637;-88
2022/12/06 07:23:03;;;;;;;39.70;28.60;;;;;;;2.90;100.00;96346.27;105596;1303;22479;-88
2022/12/06 07:25:33;;;;;;;37.00;28.50;;;;;;;2.88;100.00;96353.05;105602;1289;22561;-87
2022/12/06 07:28:03;;;;;;;37.60;29.50;;;;;;;2.88;100.00;96353.66;105561;1292;22974;-88
2022/12/06 07:30:32;;;;;;;34.50;26.50;;;;;;;2.89;100.00;96350.07;105534;1302;22635;-89
2022/12/06 07:33:03;;;;;;;35.60;26.40;;;;;;;2.89;100.00;96349.04;105581;1278;22469;-88
2022/12/06 07:35:33;;;;;;;34.20;26.00;;;;;;;2.90;100.00;96348.20;105587;1302;24298;-88
2022/12/06 07:38:03;;;;;;;36.70;26.90;;;;;;;2.92;100.00;96346.77;105491;1295;30626;-88
2022/12/06 07:40:34;;;;;;;34.10;25.30;;;;;;;2.92;100.00;96341.48;105523;1302;22480;-88
2022/12/06 07:45:52;;;;;;;29.00;22.30;;;;;;;2.96;100.00;96328.14;105571;1275;23296;-89
2022/12/06 07:48:21;;;;;;;27.30;19.90;;;;;;;2.99;100.00;96325.64;105575;1288;25019;-89
2022/12/06 07:50:52;;;;;;;40.20;29.50;;;;;;;3.03;100.00;96326.59;105622;1296;24272;-89
2022/12/06 07:53:24;;;;;;;40.40;30.50;;;;;;;3.04;100.00;96323.92;105625;1288;22544;-89
2022/12/06 07:55:53;;;;;;;40.70;31.20;;;;;;;3.05;100.00;96322.01;105502;1303;23326;-89
2022/12/06 07:58:22;;;;;;;42.80;31.70;;;;;;;3.08;100.00;96323.56;105598;1287;24327;-89
2022/12/06 08:00:52;;;;;;;42.80;32.30;;;;;;;3.02;100.00;96321.16;105656;1294;22473;-89
2022/12/06 08:03:21;;;;;;;54.20;32.70;;;;;;;2.97;100.00;96314.04;105490;1290;26442;-90
2022/12/06 08:05:55;;;;;;;44.30;32.70;;;;;;;2.97;100.00;96317.13;105480;1287;102963;-89
2022/12/06 08:08:24;;;;;;;38.90;30.60;;;;;;;3.02;100.00;96320.86;105555;1303;45055;-88
2022/12/06 08:10:53;;;;;;;41.10;31.70;;;;;;;3.03;100.00;96318.05;105641;1303;22459;-89
2022/12/06 08:13:21;;;;;;;39.10;30.60;;;;;;;3.04;100.00;96320.31;105626;1303;22491;-89
2022/12/06 08:15:50;;;;;;;39.80;30.50;;;;;;;3.06;100.00;96321.50;105558;1303;69502;-88
2022/12/06 08:18:19;;;;;;;36.40;27.00;;;;;;;3.08;100.00;96318.48;105577;1303;54579;-89
2022/12/06 08:20:49;;;;;;;45.60;35.50;;;;;;;3.08;100.00;96318.16;105641;1303;22534;-88
2022/12/06 08:23:19;;;;;;;40.60;31.10;;;;;;;3.06;100.00;96314.52;105528;1302;22067;-89
2022/12/06 08:25:58;;;;;;;35.90;27.80;;;;;;;3.07;100.00;96310.52;105601;1295;25767;-88
2022/12/06 08:28:30;;;;;;;43.20;35.00;;;;;;;3.10;100.00;96310.62;105513;1301;22909;-88
2022/12/06 08:31:04;;;;;;;34.50;26.30;;;;;;;3.13;100.00;96310.67;105502;1288;22504;-88
2022/12/06 08:33:33;;;;;;;31.80;24.50;;;;;;;3.16;100.00;96310.61;105599;1287;22535;-88
2022/12/06 08:36:07;;;;;;;36.10;25.00;;;;;;;3.19;100.00;96312.75;105620;1288;22498;-88
2022/12/06 08:38:37;;;;;;;42.10;31.70;;;;;;;3.22;100.00;96311.45;105656;1301;22471;-87
2022/12/06 08:41:54;;;;;;;;;;;;;;;3.23;100.00;96309.61;105571;1300;25507;-88
2022/12/06 08:43:58;;;;;;;41.20;30.90;;;;;;;3.21;100.00;96310.84;105662;1303;22471;-88
2022/12/06 08:46:28;;;;;;;42.60;32.10;;;;;;;3.16;100.00;96307.52;105586;1302;22483;-87
2022/12/06 08:49:00;;;;;;;51.50;41.20;;;;;;;3.12;100.00;96307.78;105609;1302;22637;-88
2022/12/06 08:51:32;;;;;;;64.50;52.10;;;;;;;3.11;100.00;96313.43;105647;1287;22465;-88
2022/12/06 08:54:03;;;;;;;42.50;33.10;;;;;;;3.10;100.00;96319.12;105631;1287;23168;-88
2022/12/06 08:56:32;;;;;;;45.20;31.30;;;;;;;3.08;100.00;96316.70;105527;1287;22471;-87
2022/12/06 08:59:01;;;;;;;44.00;31.90;;;;;;;3.06;100.00;96312.44;105630;1287;22589;-88
2022/12/06 09:01:32;;;;;;;37.40;27.90;;;;;;;3.06;100.00;96308.55;105625;1294;22509;-88
2022/12/06 09:04:04;;;;;;;34.60;26.40;;;;;;;3.07;100.00;96310.98;105591;1303;22513;-87
2022/12/06 09:06:33;;;;;;;30.80;23.40;;;;;;;3.08;100.00;96313.77;105566;1302;22491;-87
2022/12/06 09:09:02;;;;;;;31.00;25.70;;;;;;;3.11;100.00;96315.20;105634;1300;25343;-88
2022/12/06 09:11:31;;;;;;;40.60;31.00;;;;;;;3.14;100.00;96311.01;105584;1281;22512;-88
2022/12/06 09:14:06;;;;;;;41.00;30.20;;;;;;;3.18;100.00;96308.34;105552;1301;22474;-88
2022/12/06 09:16:34;;;;;;;38.90;30.20;;;;;;;3.21;100.00;96302.98;105608;1288;26472;-87
2022/12/06 09:19:03;;;;;;;40.60;31.30;;;;;;;3.24;100.00;96299.48;105588;1303;22584;-87
2022/12/06 09:21:34;;;;;;;49.60;34.50;;;;;;;3.27;100.00;96295.55;105574;1302;22484;-88
2022/12/06 09:24:03;;;;;;;133.50;40.20;;;;;;;3.27;100.00;96293.85;105598;1294;22467;-88
2022/12/06 09:26:33;;;;;;;65.80;39.60;;;;;;;3.17;100.00;96290.66;105625;1278;22493;-88
2022/12/06 09:29:03;;;;;;;47.70;36.90;;;;;;;3.15;100.00;96288.55;105809;1279;24129;-88
2022/12/06 09:31:31;;;;;;;;;;;;;;;3.17;100.00;96279.98;105819;1286;22462;-88
2022/12/06 09:34:02;;;;;;;62.60;37.90;;;;;;;3.20;100.00;96284.83;105774;1301;23820;-88
2022/12/06 09:36:31;;;;;;;53.90;36.90;;;;;;;3.19;100.00;96281.47;105700;1291;22502;-88
2022/12/06 09:39:03;;;;;;;52.60;36.40;;;;;;;3.20;100.00;96278.13;105794;1286;22510;-88
2022/12/06 09:42:03;;;;;;;47.30;36.10;;;;;;;3.19;100.00;96270.83;105735;1302;22498;-88
2022/12/06 09:45:01;;;;;;;43.20;34.50;;;;;;;3.20;100.00;96267.66;105779;1296;22471;-87
2022/12/06 09:47:41;;;;;;;61.70;40.80;;;;;;;3.23;100.00;96263.89;105744;1301;22460;-88
2022/12/06 09:50:25;;;;;;;60.70;40.30;;;;;;;3.26;100.00;96257.17;105793;1294;22461;-88
2022/12/06 09:53:18;;;;;;;78.80;36.90;;;;;;;3.25;100.00;96259.57;105831;1286;22472;-88
2022/12/06 09:56:00;;;;;;;119.30;37.30;;;;;;;3.18;100.00;96258.77;105759;1301;24012;-88
2022/12/06 09:58:42;;;;;;;99.10;37.40;;;;;;;3.11;100.00;96254.75;105745;1301;22456;-88
2022/12/06 10:01:22;;;;;;;51.10;39.60;;;;;;;3.07;100.00;96249.49;105787;1300;22443;-88
2022/12/06 10:04:02;;;;;;;74.30;38.70;;;;;;;3.10;100.00;96248.70;105732;1301;22497;-88
2022/12/06 10:06:45;;;;;;;68.60;39.40;;;;;;;3.17;100.00;96246.83;105766;1301;22501;-89
2022/12/06 10:09:28;;;;;;;45.20;36.40;;;;;;;3.25;100.00;96246.00;105742;1288;22465;-87
2022/12/06 10:12:08;;;;;;;51.90;32.60;;;;;;;3.33;100.00;96244.79;105735;1301;22515;-88
2022/12/06 10:15:07;;;;;;;68.10;34.30;;;;;;;3.36;100.00;96240.80;105809;1288;22504;-88
2022/12/06 10:17:46;;;;;;;79.50;37.20;;;;;;;3.38;100.00;96236.16;105449;1301;24271;-88
2022/12/06 10:20:19;;;;;;;79.40;38.60;;;;;;;3.33;100.00;96235.16;105489;1303;23130;-88
2022/12/06 10:23:04;;;;;;;52.30;37.00;;;;;;;3.34;100.00;96231.39;105510;1281;22465;-88
2022/12/06 10:25:41;;;;;;;50.10;37.20;;;;;;;3.39;100.00;96231.16;105478;1302;22501;-88
2022/12/06 10:28:17;;;;;;;72.20;35.50;;;;;;;3.41;100.00;96225.53;105705;1298;38338;-87
2022/12/06 10:30:55;;;;;;;80.70;39.10;;;;;;;3.43;100.00;96226.60;105730;1304;22623;-88
2022/12/06 10:33:33;;;;;;;62.80;36.20;;;;;;;3.42;100.00;96220.92;105715;1301;22498;-88
2022/12/06 10:36:05;;;;;;;72.60;35.50;;;;;;;3.40;100.00;96222.78;104300;1286;2004341;-88
2022/12/06 10:38:44;;;;;;;44.80;35.30;;;;;;;3.36;100.00;96222.92;105792;1295;23481;-88
2022/12/06 10:41:20;;;;;;;46.90;34.90;;;;;;;3.37;100.00;96221.56;105797;1301;22473;-88
2022/12/06 10:44:01;;;;;;;45.80;35.60;;;;;;;3.45;100.00;96217.98;105767;1301;22501;-88
2022/12/06 10:49:31;;;;;;;47.20;37.60;;;;;;;3.66;100.00;96211.31;105807;1298;22645;-88
2022/12/06 10:52:09;;;;;;;48.40;38.00;;;;;;;3.74;100.00;96214.20;105784;1300;22463;-88
2022/12/06 10:54:42;;;;;;;44.60;34.60;;;;;;;3.82;100.00;96209.31;105859;1301;22470;-88
2022/12/06 10:57:17;;;;;;;42.20;34.00;;;;;;;3.89;100.00;96208.44;105737;1286;22445;-88
2022/12/06 10:59:53;;;;;;;41.40;32.90;;;;;;;3.95;100.00;96211.36;105806;1294;24250;-88
2022/12/06 11:02:30;;;;;;;42.70;32.60;;;;;;;3.98;100.00;96210.23;105769;1276;23136;-89
2022/12/06 11:05:04;;;;;;;38.40;31.70;;;;;;;3.95;100.00;96211.96;105709;1285;22495;-89
2022/12/06 11:07:37;;;;;;;40.00;32.30;;;;;;;3.92;100.00;96216.28;105712;1301;104867;-88
2022/12/06 11:10:19;;;;;;;45.80;36.00;;;;;;;3.88;100.00;96218.92;105764;1301;22476;-88
2022/12/06 11:12:53;;;;;;;48.50;36.50;;;;;;;3.83;100.00;96209.27;105811;1300;22468;-88
2022/12/06 11:15:32;;;;;;;43.70;33.50;;;;;;;3.83;100.00;96211.16;105743;1286;22607;-88
2022/12/06 11:18:09;;;;;;;36.20;28.80;;;;;;;3.83;100.00;96208.86;105725;1301;26820;-88
2022/12/06 11:20:47;;;;;;;39.60;31.40;;;;;;;3.80;100.00;96203.62;105792;1301;22475;-88
2022/12/06 11:23:25;;;;;;;46.70;32.60;;;;;;;3.73;100.00;96200.35;105828;1301;25329;-88
2022/12/06 11:26:19;;;;;;;51.20;33.50;;;;;;;3.62;100.00;96202.04;105721;1291;26279;-87
2022/12/06 11:28:59;;;;;;;58.10;38.40;;;;;;;3.52;100.00;96200.40;105683;1301;65508;-89
2022/12/06 11:31:37;;;;;;;59.50;39.50;;;;;;;3.46;100.00;96201.69;105785;1291;22492;-89
2022/12/06 11:34:12;;;;;;;51.10;40.60;;;;;;;3.44;100.00;96201.60;105779;1301;22492;-89
2022/12/06 11:36:45;;;;;;;54.30;40.60;;;;;;;3.42;100.00;96198.71;105733;1301;23183;-87
2022/12/06 11:39:14;;;;;;;47.10;37.40;;;;;;;3.45;100.00;96198.16;105801;1294;22478;-89
2022/12/06 11:41:46;;;;;;;47.60;38.20;;;;;;;3.49;100.00;96200.36;105744;1301;24247;-88
2022/12/06 11:44:21;;;;;;;50.50;38.80;;;;;;;3.53;100.00;96196.80;105754;1292;22457;-88
2022/12/06 11:46:57;;;;;;;45.30;36.00;;;;;;;3.55;100.00;96194.21;105712;1296;22903;-88
2022/12/06 11:49:31;;;;;;;44.70;36.20;;;;;;;3.57;100.00;96193.34;105746;1298;22485;-87
2022/12/06 11:52:05;;;;;;;48.40;38.00;;;;;;;3.59;100.00;96187.44;105796;1301;24281;-87
2022/12/06 11:54:45;;;;;;;40.80;33.10;;;;;;;3.61;100.00;96189.86;105780;1282;22476;-88
2022/12/06 11:57:20;;;;;;;43.90;33.70;;;;;;;3.62;100.00;96190.24;105659;1301;45869;-88
2022/12/06 12:00:15;;;;;;;35.30;30.30;;;;;;;3.63;100.00;96198.89;105738;1293;22491;-87